Time;durP1;ratioP1;P1;durP2;ratioP2;P2;SDS_P1;SDS_P2;PMS_P1;PMS_P2;Temp;Humidity;BMP_temperature;BMP_pressure;BME280_temperature;BME280_humidity;BME280_pressure;Samples;Min_cycle;Max_cycle;Signal;HPM_P1;HPM_P2
2024/03/15 00:02:54;;;;;;;40.90;26.50;;;;;;;6.66;70.99;99043.38;233807;180;138296;-66
2024/03/15 00:07:57;;;;;;;39.70;25.30;;;;;;;6.61;71.16;99038.69;233824;180;136253;-66
2024/03/15 00:13:03;;;;;;;43.10;25.60;;;;;;;6.56;71.19;99035.19;233945;179;149650;-66
2024/03/15 00:18:07;;;;;;;48.30;26.40;;;;;;;6.52;71.13;99030.83;233129;180;137451;-67
2024/03/15 00:23:11;;;;;;;41.60;25.10;;;;;;;6.45;71.06;99024.95;233349;180;137267;-66
2024/03/15 00:28:14;;;;;;;47.30;23.70;;;;;;;6.43;71.20;99018.36;233523;179;151349;-67
2024/03/15 00:33:17;;;;;;;41.60;25.60;;;;;;;6.42;70.95;99013.12;233265;180;137930;-66
2024/03/15 00:38:20;;;;;;;40.40;25.20;;;;;;;6.44;71.01;99005.66;233742;180;137558;-66
2024/03/15 00:43:23;;;;;;;39.00;24.80;;;;;;;6.43;70.88;99002.50;233711;180;151831;-66
2024/03/15 00:48:26;;;;;;;44.10;26.80;;;;;;;6.42;70.69;98999.56;233724;180;136482;-67
2024/03/15 00:53:31;;;;;;;39.90;24.60;;;;;;;6.37;70.60;98997.98;233246;176;136763;-66
2024/03/15 00:58:34;;;;;;;42.70;26.20;;;;;;;6.31;70.51;98989.10;233087;179;152522;-69
2024/03/15 01:03:38;;;;;;;38.00;24.90;;;;;;;6.24;70.54;98989.08;233784;180;136529;-68
2024/03/15 01:08:41;;;;;;;45.00;26.50;;;;;;;6.17;70.54;98986.59;233793;168;137082;-67
2024/03/15 01:13:44;;;;;;;49.80;26.00;;;;;;;6.08;70.71;98982.75;233663;180;151060;-64
2024/03/15 01:18:47;;;;;;;47.10;25.50;;;;;;;6.03;70.60;98984.57;233823;176;136583;-68
2024/03/15 01:23:50;;;;;;;42.30;25.70;;;;;;;5.95;70.47;98989.87;233935;180;136832;-69
2024/03/15 01:28:54;;;;;;;47.60;25.30;;;;;;;5.87;70.56;98983.84;233820;180;151409;-67
2024/03/15 01:33:57;;;;;;;45.70;25.30;;;;;;;5.82;70.84;98988.27;233528;179;136787;-67
2024/03/15 01:39:00;;;;;;;43.20;25.00;;;;;;;5.78;70.59;98984.73;233740;179;137384;-69
2024/03/15 01:44:03;;;;;;;39.40;24.00;;;;;;;5.73;70.58;98986.73;233793;180;151955;-70
2024/03/15 01:49:06;;;;;;;41.40;24.40;;;;;;;5.73;70.67;98989.91;233755;180;137933;-70
2024/03/15 01:54:10;;;;;;;44.00;25.10;;;;;;;5.78;70.81;98991.63;233871;180;137636;-69
2024/03/15 01:59:13;;;;;;;42.80;23.60;;;;;;;5.80;70.72;98990.99;233738;179;153050;-72
2024/03/15 02:04:16;;;;;;;44.90;24.60;;;;;;;5.78;70.51;98997.25;233779;180;137332;-69
2024/03/15 02:09:20;;;;;;;39.40;23.60;;;;;;;5.69;70.24;98996.77;233748;180;136720;-69
2024/03/15 02:14:23;;;;;;;49.00;24.60;;;;;;;5.62;70.41;98994.45;233731;180;152344;-68
2024/03/15 02:19:27;;;;;;;58.30;24.80;;;;;;;5.58;70.37;98989.83;232988;179;136685;-67
2024/03/15 02:24:30;;;;;;;50.20;24.90;;;;;;;5.55;70.38;98986.27;233623;180;137629;-68
2024/03/15 02:29:34;;;;;;;51.50;25.10;;;;;;;5.51;70.38;98991.39;233766;180;151360;-70
2024/03/15 02:34:36;;;;;;;49.40;24.80;;;;;;;5.44;70.35;98992.52;233793;176;137927;-70
2024/03/15 02:39:41;;;;;;;55.40;24.30;;;;;;;5.34;70.24;98997.02;233793;180;137422;-69
2024/03/15 02:44:44;;;;;;;52.80;23.80;;;;;;;5.26;70.32;98993.84;233156;180;151737;-68
2024/03/15 02:49:49;;;;;;;56.90;24.70;;;;;;;5.18;70.23;98993.27;233734;180;136600;-68
2024/03/15 02:54:52;;;;;;;52.30;25.50;;;;;;;5.13;70.19;98994.52;233892;179;136926;-66
2024/03/15 02:59:57;;;;;;;58.20;24.50;;;;;;;5.09;69.99;98990.66;233814;179;151413;-67
2024/03/15 03:05:00;;;;;;;70.80;24.90;;;;;;;5.04;69.72;98989.45;233881;172;137617;-67
2024/03/15 03:10:04;;;;;;;73.50;26.90;;;;;;;5.03;69.61;98984.56;233861;179;137782;-67
2024/03/15 03:15:08;;;;;;;61.70;25.80;;;;;;;5.04;69.31;98983.98;233768;179;151153;-67
2024/03/15 03:20:18;;;;;;;60.90;26.00;;;;;;;4.99;69.16;98980.87;233805;179;137631;-67
2024/03/15 03:25:21;;;;;;;60.50;24.70;;;;;;;4.92;69.01;98983.03;233877;179;136895;-68
2024/03/15 03:30:24;;;;;;;56.90;25.30;;;;;;;4.85;68.79;98980.55;233308;179;151108;-69
2024/03/15 03:35:27;;;;;;;61.40;25.00;;;;;;;4.74;68.89;98983.94;233772;179;136375;-67
2024/03/15 03:40:30;;;;;;;51.50;24.00;;;;;;;4.65;69.17;98986.25;233752;180;136935;-68
2024/03/15 03:45:35;;;;;;;53.20;24.30;;;;;;;4.56;69.21;98990.81;233148;169;151751;-67
2024/03/15 03:50:43;;;;;;;65.00;25.80;;;;;;;4.46;69.52;98999.96;233581;180;136702;-67
2024/03/15 03:55:46;;;;;;;84.00;25.50;;;;;;;4.43;69.80;98999.71;233691;180;137443;-68
2024/03/15 04:00:50;;;;;;;64.60;24.60;;;;;;;4.39;69.88;99004.61;233655;180;152843;-67
2024/03/15 04:05:53;;;;;;;67.50;24.60;;;;;;;4.33;70.08;99003.79;233720;180;136778;-65
2024/03/15 04:10:56;;;;;;;52.80;24.10;;;;;;;4.32;70.16;99006.47;233672;180;137795;-67
2024/03/15 04:15:59;;;;;;;55.40;22.70;;;;;;;4.30;70.32;99008.98;233809;180;151974;-67
2024/03/15 04:21:03;;;;;;;56.20;21.50;;;;;;;4.38;70.34;99006.61;233896;180;137722;-66
2024/03/15 04:26:06;;;;;;;83.50;25.60;;;;;;;4.42;70.10;99006.08;233858;180;138151;-68
2024/03/15 04:31:09;;;;;;;64.60;26.30;;;;;;;4.49;69.85;99002.48;233719;180;151016;-66
2024/03/15 04:36:11;;;;;;;61.70;23.80;;;;;;;4.44;69.34;99005.65;233837;180;136521;-67
2024/03/15 04:41:20;;;;;;;58.70;23.30;;;;;;;4.39;69.08;99005.50;233914;180;137262;-67
2024/03/15 04:46:23;;;;;;;57.90;23.20;;;;;;;4.36;69.16;99003.14;233718;180;151211;-67
2024/03/15 04:51:26;;;;;;;49.00;22.50;;;;;;;4.30;69.01;99003.38;233731;180;136595;-68
2024/03/15 04:56:29;;;;;;;41.10;21.20;;;;;;;4.27;69.21;99005.08;233359;180;137587;-67
2024/03/15 05:01:32;;;;;;;33.30;18.90;;;;;;;4.22;69.53;99000.15;233333;180;151461;-66
2024/03/15 05:06:36;;;;;;;38.50;20.20;;;;;;;4.21;69.92;99003.36;233756;180;137142;-67
2024/03/15 05:11:42;;;;;;;33.90;19.70;;;;;;;4.21;70.05;99003.01;233770;180;136504;-66
2024/03/15 05:16:54;;;;;;;45.80;20.00;;;;;;;4.20;70.34;99000.55;233866;180;152589;-69
2024/03/15 05:21:58;;;;;;;43.60;21.30;;;;;;;4.23;70.64;99004.67;233786;179;136599;-69
2024/03/15 05:27:02;;;;;;;44.80;21.40;;;;;;;4.34;70.85;99005.86;233877;179;140178;-69
2024/03/15 05:32:06;;;;;;;40.90;23.00;;;;;;;4.47;70.89;99003.80;233780;180;151057;-69
2024/03/15 05:37:09;;;;;;;38.70;23.00;;;;;;;4.62;71.21;99002.86;233812;180;150359;-66
2024/03/15 05:42:12;;;;;;;36.40;22.80;;;;;;;4.74;71.41;99008.72;233883;180;137311;-66
2024/03/15 05:47:16;;;;;;;41.40;20.80;;;;;;;4.85;71.22;99013.59;233664;180;151810;-68
2024/03/15 05:52:19;;;;;;;220.20;182.30;;;;;;;5.06;73.12;99021.55;233389;180;136818;-69
2024/03/15 05:57:26;;;;;;;43.70;27.00;;;;;;;5.15;71.71;99018.70;233900;180;137032;-69
2024/03/15 06:02:29;;;;;;;381.90;275.30;;;;;;;5.20;71.65;99020.30;233740;179;151719;-70
2024/03/15 06:07:34;;;;;;;61.60;36.90;;;;;;;5.23;71.79;99019.43;233797;179;136705;-69
2024/03/15 06:12:37;;;;;;;42.50;26.60;;;;;;;5.30;71.72;99020.73;233777;180;137579;-70
2024/03/15 06:17:41;;;;;;;180.80;123.20;;;;;;;5.35;71.69;99021.05;233890;173;151384;-70
2024/03/15 06:22:44;;;;;;;48.40;27.30;;;;;;;5.43;72.10;99026.15;233726;169;138044;-66
2024/03/15 06:27:47;;;;;;;41.80;25.60;;;;;;;5.55;71.49;99035.70;233819;180;136960;-66
2024/03/15 06:32:51;;;;;;;39.10;24.00;;;;;;;5.60;71.47;99043.80;233696;180;151537;-66
2024/03/15 06:38:07;;;;;;;32.80;21.30;;;;;;;5.61;71.16;99041.12;233756;177;136761;-66
2024/03/15 06:43:25;;;;;;;33.00;19.50;;;;;;;5.59;71.16;99043.45;233557;179;137236;-69
2024/03/15 06:48:44;;;;;;;32.90;19.10;;;;;;;5.55;71.24;99047.00;233790;180;152387;-69
2024/03/15 06:53:47;;;;;;;232.30;172.70;;;;;;;5.54;71.49;99045.30;233671;179;136399;-70
2024/03/15 06:58:51;;;;;;;106.30;67.90;;;;;;;5.59;71.95;99045.95;233783;179;136865;-68
2024/03/15 07:03:58;;;;;;;33.10;21.40;;;;;;;5.66;72.04;99051.06;233847;179;151083;-68
2024/03/15 07:09:05;;;;;;;31.80;20.30;;;;;;;5.64;71.58;99053.80;233673;179;136301;-69
2024/03/15 07:14:08;;;;;;;30.30;19.40;;;;;;;5.64;71.66;99052.94;233774;179;137673;-67
2024/03/15 07:19:13;;;;;;;30.00;19.40;;;;;;;5.66;71.66;99050.20;233864;179;151572;-68
2024/03/15 07:24:16;;;;;;;32.50;21.10;;;;;;;5.75;71.64;99044.01;233829;179;137857;-69
2024/03/15 07:29:20;;;;;;;32.40;20.00;;;;;;;5.86;71.51;99040.90;233887;179;136720;-70
2024/03/15 07:34:24;;;;;;;30.10;19.20;;;;;;;5.92;71.29;99040.31;233762;179;151451;-67
2024/03/15 07:39:32;;;;;;;33.00;20.70;;;;;;;5.96;71.29;99038.95;233749;179;136409;-67
2024/03/15 07:44:35;;;;;;;31.00;19.00;;;;;;;6.01;71.45;99044.01;233783;169;137919;-68
2024/03/15 07:49:38;;;;;;;29.00;19.60;;;;;;;6.05;71.47;99048.24;233786;180;152196;-68
2024/03/15 07:54:42;;;;;;;30.00;18.20;;;;;;;6.08;71.45;99052.34;233766;180;136368;-68
2024/03/15 07:59:45;;;;;;;29.10;18.30;;;;;;;6.12;71.36;99054.96;233752;180;137725;-68
2024/03/15 08:04:50;;;;;;;29.30;19.20;;;;;;;6.16;71.44;99060.61;233764;180;151449;-67
2024/03/15 08:09:53;;;;;;;30.20;18.80;;;;;;;6.20;71.74;99056.39;233643;180;136850;-67
2024/03/15 08:14:57;;;;;;;32.30;19.50;;;;;;;6.26;72.03;99058.78;233715;180;136713;-66
2024/03/15 08:20:00;;;;;;;33.20;19.30;;;;;;;6.40;72.07;99060.93;233816;180;151523;-66
2024/03/15 08:25:06;;;;;;;32.70;19.70;;;;;;;6.58;72.06;99055.75;233450;180;140546;-65
2024/03/15 08:30:13;;;;;;;29.80;17.40;;;;;;;6.76;71.65;99050.16;233848;180;137291;-65
2024/03/15 08:35:16;;;;;;;37.30;19.10;;;;;;;6.90;71.40;99044.54;233771;180;152463;-65
2024/03/15 08:40:20;;;;;;;37.50;18.20;;;;;;;7.05;71.13;99039.60;233603;180;137813;-65
2024/03/15 08:45:25;;;;;;;228.20;158.70;;;;;;;7.15;70.82;99036.70;233800;168;137667;-63
2024/03/15 08:50:32;;;;;;;31.70;18.90;;;;;;;7.23;70.73;99034.36;233586;180;151545;-63
2024/03/15 08:55:38;;;;;;;25.60;16.60;;;;;;;7.23;70.30;99035.20;233802;180;136439;-62
2024/03/15 09:00:42;;;;;;;22.50;14.80;;;;;;;7.28;70.19;99036.39;233773;180;137185;-64
2024/03/15 09:05:46;;;;;;;26.80;16.60;;;;;;;7.31;70.21;99036.80;233066;180;151420;-63
2024/03/15 09:10:49;;;;;;;28.70;16.30;;;;;;;7.35;70.17;99036.25;233865;179;137721;-63
2024/03/15 09:15:55;;;;;;;29.20;15.40;;;;;;;7.43;70.65;99038.85;233771;179;137627;-63
2024/03/15 09:20:58;;;;;;;51.00;32.70;;;;;;;7.60;70.75;99036.23;232611;180;151879;-65
2024/03/15 09:26:02;;;;;;;26.20;16.40;;;;;;;7.77;70.40;99035.38;233562;179;138547;-65
2024/03/15 09:31:08;;;;;;;28.40;16.10;;;;;;;7.91;69.89;99034.30;233809;180;138972;-66
2024/03/15 09:36:33;;;;;;;25.70;15.80;;;;;;;8.05;69.49;99041.37;233782;179;151457;-67
2024/03/15 09:41:38;;;;;;;24.00;15.30;;;;;;;8.06;69.29;99038.13;233850;180;136812;-65
2024/03/15 09:46:41;;;;;;;25.10;15.80;;;;;;;8.15;69.32;99027.95;233909;180;136961;-65
2024/03/15 09:51:46;;;;;;;26.30;16.40;;;;;;;8.22;69.34;99025.80;233088;180;151237;-63
2024/03/15 09:56:51;;;;;;;31.00;15.70;;;;;;;8.40;69.17;99019.20;233753;180;136568;-63
2024/03/15 10:01:55;;;;;;;24.70;16.60;;;;;;;8.67;68.88;99019.20;233870;179;137622;-63
2024/03/15 10:06:59;;;;;;;35.00;21.50;;;;;;;8.77;68.37;99015.30;233679;180;151839;-64
2024/03/15 10:12:03;;;;;;;38.60;24.90;;;;;;;8.77;68.37;99011.40;233304;180;136838;-63
2024/03/15 10:17:09;;;;;;;26.10;16.10;;;;;;;8.80;68.08;99005.05;233701;180;136913;-63
2024/03/15 10:22:12;;;;;;;29.60;17.40;;;;;;;8.82;67.98;98999.62;233840;179;151352;-63
2024/03/15 10:27:16;;;;;;;29.40;17.20;;;;;;;8.90;68.13;98994.73;233810;179;136653;-63
2024/03/15 10:32:19;;;;;;;40.50;24.90;;;;;;;9.07;68.48;98989.55;233730;179;138228;-66
2024/03/15 10:37:22;;;;;;;31.80;16.20;;;;;;;9.39;68.57;98986.48;233422;179;152371;-67
2024/03/15 10:42:26;;;;;;;34.30;16.60;;;;;;;9.78;68.26;98980.79;232822;179;137579;-67
2024/03/15 10:47:29;;;;;;;30.20;16.40;;;;;;;10.28;67.69;98975.16;233718;179;137043;-64
2024/03/15 10:52:33;;;;;;;32.10;17.60;;;;;;;10.74;66.44;98967.99;233795;179;151507;-65
2024/03/15 10:57:37;;;;;;;31.90;20.60;;;;;;;11.37;66.68;98958.55;233628;179;137593;-60
2024/03/15 11:02:46;;;;;;;23.30;14.90;;;;;;;11.93;65.10;98950.32;233599;179;137302;-61
2024/03/15 11:08:04;;;;;;;34.50;14.60;;;;;;;12.48;63.96;98938.63;233604;173;151903;-60
2024/03/15 11:13:07;;;;;;;23.60;14.60;;;;;;;13.16;64.20;98931.73;233665;179;137762;-58
2024/03/15 11:18:13;;;;;;;33.40;15.70;;;;;;;14.33;62.02;98927.39;233484;179;138172;-65
2024/03/15 11:23:20;;;;;;;;;;;;;;;14.16;58.10;98925.70;233569;169;152253;-65
2024/03/15 11:28:25;;;;;;;32.10;13.40;;;;;;;13.92;57.86;98921.14;233756;179;136297;-63
2024/03/15 11:33:31;;;;;;;23.90;15.10;;;;;;;13.69;57.29;98918.66;233725;179;138349;-64
2024/03/15 11:38:34;;;;;;;26.30;15.40;;;;;;;13.77;57.75;98908.95;233700;179;151487;-65
2024/03/15 11:43:38;;;;;;;33.40;14.90;;;;;;;13.86;57.72;98904.67;233617;180;137570;-66
2024/03/15 11:48:42;;;;;;;19.10;14.70;;;;;;;14.01;57.33;98901.95;233035;180;137191;-66
2024/03/15 11:53:45;;;;;;;28.40;14.00;;;;;;;14.19;57.06;98895.46;233715;180;151613;-65
2024/03/15 11:58:48;;;;;;;33.70;15.40;;;;;;;14.43;56.69;98894.11;233424;180;138864;-65
2024/03/15 12:03:52;;;;;;;25.20;13.90;;;;;;;14.78;56.67;98885.27;233497;180;137589;-65
2024/03/15 12:09:02;;;;;;;22.70;14.10;;;;;;;15.25;56.02;98881.55;233598;180;151889;-65
2024/03/15 12:14:04;;;;;;;18.90;12.20;;;;;;;15.58;54.37;98868.95;233568;180;137346;-64
2024/03/15 12:19:12;;;;;;;25.00;13.40;;;;;;;15.77;53.80;98862.83;233641;180;136780;-65
2024/03/15 12:24:15;;;;;;;21.10;13.00;;;;;;;15.99;53.05;98852.30;233695;179;151861;-65
2024/03/15 12:29:20;;;;;;;20.90;13.20;;;;;;;16.25;52.39;98842.38;233566;179;137427;-65
2024/03/15 12:34:23;;;;;;;18.00;12.30;;;;;;;16.38;50.54;98839.23;233606;180;136937;-64
2024/03/15 12:39:26;;;;;;;29.70;13.30;;;;;;;16.34;49.98;98829.93;233454;180;151804;-64
2024/03/15 12:44:29;;;;;;;22.10;12.40;;;;;;;16.30;50.54;98825.28;233392;180;137496;-64
2024/03/15 12:49:32;;;;;;;23.60;10.40;;;;;;;16.33;50.53;98821.06;233352;180;137939;-62
2024/03/15 12:54:35;;;;;;;22.60;9.40;;;;;;;16.35;50.64;98818.75;233802;179;151429;-65
2024/03/15 12:59:38;;;;;;;17.30;9.40;;;;;;;16.28;50.80;98815.92;233747;168;138193;-63
2024/03/15 13:04:41;;;;;;;17.60;10.20;;;;;;;16.40;49.57;98812.39;233782;179;136521;-64
2024/03/15 13:09:45;;;;;;;16.40;9.10;;;;;;;16.52;49.01;98808.27;233732;179;152259;-64
2024/03/15 13:14:48;;;;;;;14.00;8.80;;;;;;;16.69;48.74;98807.02;233784;179;136588;-63
2024/03/15 13:19:54;;;;;;;15.20;8.90;;;;;;;16.93;48.14;98797.36;233738;179;137196;-63
2024/03/15 13:24:57;;;;;;;12.80;8.20;;;;;;;17.21;47.95;98796.92;233749;177;151365;-63
2024/03/15 13:30:01;;;;;;;15.70;8.40;;;;;;;17.51;47.16;98792.85;233783;180;137447;-64
2024/03/15 13:35:11;;;;;;;17.10;7.70;;;;;;;17.79;46.60;98790.95;233715;179;137425;-64
2024/03/15 13:40:19;;;;;;;12.50;8.00;;;;;;;17.96;46.41;98786.22;233704;172;151378;-64
2024/03/15 13:45:22;;;;;;;19.00;8.60;;;;;;;18.09;45.87;98782.34;233685;179;137300;-65
2024/03/15 13:50:28;;;;;;;11.10;8.20;;;;;;;18.09;44.86;98781.60;233797;179;137665;-65
2024/03/15 13:55:31;;;;;;;13.40;8.90;;;;;;;17.82;44.71;98779.86;233809;179;152650;-65
2024/03/15 14:00:38;;;;;;;11.10;8.30;;;;;;;17.37;44.22;98777.30;233674;179;137182;-65
2024/03/15 14:05:42;;;;;;;13.20;8.50;;;;;;;16.94;45.06;98776.86;233743;179;139363;-64
2024/03/15 14:10:48;;;;;;;15.80;8.40;;;;;;;16.56;45.47;98778.13;233839;180;152630;-64
2024/03/15 14:15:52;;;;;;;16.70;8.10;;;;;;;16.27;45.62;98782.93;233704;179;137776;-64
2024/03/15 14:20:55;;;;;;;12.90;8.40;;;;;;;16.01;45.88;98781.70;233699;180;137600;-64
2024/03/15 14:25:58;;;;;;;10.60;8.50;;;;;;;15.81;46.51;98776.61;233773;179;151473;-64
2024/03/15 14:31:01;;;;;;;12.80;8.20;;;;;;;15.62;46.79;98783.05;233554;179;137396;-65
2024/03/15 14:36:04;;;;;;;27.10;9.30;;;;;;;15.49;47.32;98782.98;233709;179;138510;-64
2024/03/15 14:41:08;;;;;;;18.80;10.10;;;;;;;15.37;48.12;98779.33;233791;176;151251;-65
2024/03/15 14:46:11;;;;;;;14.20;9.70;;;;;;;15.24;48.94;98772.39;233802;180;137732;-65
2024/03/15 14:51:14;;;;;;;14.60;9.70;;;;;;;15.13;49.67;98769.77;233505;180;136837;-64
2024/03/15 14:56:17;;;;;;;20.80;10.80;;;;;;;15.05;50.40;98765.14;233792;179;152627;-62
2024/03/15 15:01:21;;;;;;;20.40;11.70;;;;;;;14.94;50.99;98765.30;233777;179;139150;-63
2024/03/15 15:06:24;;;;;;;24.30;12.30;;;;;;;14.82;51.58;98764.58;233733;179;138204;-62
2024/03/15 15:11:27;;;;;;;19.70;11.50;;;;;;;14.72;52.03;98762.69;233650;180;151461;-63
2024/03/15 15:16:32;;;;;;;17.80;12.30;;;;;;;14.61;52.71;98759.15;233670;179;137000;-63
2024/03/15 15:21:37;;;;;;;20.30;11.90;;;;;;;14.53;53.38;98764.69;233745;179;137659;-64
2024/03/15 15:26:41;;;;;;;20.60;12.70;;;;;;;14.42;53.48;98764.21;233710;179;151249;-64
2024/03/15 15:31:44;;;;;;;23.60;13.10;;;;;;;14.32;54.00;98760.25;233826;179;138089;-63
2024/03/15 15:36:50;;;;;;;23.20;13.40;;;;;;;14.20;54.40;98760.19;233656;179;138192;-63
2024/03/15 15:41:54;;;;;;;23.10;13.30;;;;;;;14.08;54.67;98752.45;233593;180;151288;-64
2024/03/15 15:46:57;;;;;;;19.70;13.10;;;;;;;13.97;55.12;98755.80;233489;180;136961;-65
2024/03/15 15:52:04;;;;;;;21.70;13.40;;;;;;;13.89;55.33;98757.70;233620;180;136915;-64
2024/03/15 15:57:07;;;;;;;21.20;13.80;;;;;;;13.79;55.75;98756.90;233649;180;151464;-64
2024/03/15 16:02:10;;;;;;;29.40;13.30;;;;;;;13.69;55.92;98751.07;233690;180;137306;-65
2024/03/15 16:07:13;;;;;;;22.00;12.70;;;;;;;13.57;56.38;98751.31;233732;180;137278;-65
2024/03/15 16:12:17;;;;;;;21.40;12.70;;;;;;;13.46;56.72;98754.52;233801;180;151183;-66
2024/03/15 16:17:21;;;;;;;34.10;21.30;;;;;;;13.41;57.03;98754.23;233486;180;137386;-64
2024/03/15 16:22:24;;;;;;;21.10;12.90;;;;;;;13.31;57.21;98758.02;233196;180;137848;-63
2024/03/15 16:27:27;;;;;;;21.70;12.80;;;;;;;13.22;57.45;98759.15;233595;180;152323;-63
2024/03/15 16:32:31;;;;;;;25.10;13.20;;;;;;;13.14;57.66;98767.14;233816;180;138098;-63
2024/03/15 16:37:35;;;;;;;20.20;13.30;;;;;;;13.08;57.78;98773.28;233818;180;137165;-64
2024/03/15 16:42:38;;;;;;;18.90;12.60;;;;;;;13.00;57.94;98772.77;233797;180;151410;-64
2024/03/15 16:47:41;;;;;;;20.70;12.80;;;;;;;12.88;58.17;98776.73;233602;180;137009;-63
2024/03/15 16:52:44;;;;;;;20.00;13.50;;;;;;;12.77;58.48;98777.81;233794;180;136743;-63
2024/03/15 16:57:47;;;;;;;20.80;13.20;;;;;;;12.66;58.70;98781.23;233770;180;151551;-65
2024/03/15 17:02:51;;;;;;;19.20;13.20;;;;;;;12.60;58.83;98782.48;233712;180;139767;-64
2024/03/15 17:07:55;;;;;;;20.20;13.30;;;;;;;12.52;59.00;98787.05;233760;180;136958;-65
2024/03/15 17:12:58;;;;;;;19.30;12.70;;;;;;;12.43;59.22;98790.95;233828;180;151105;-64
2024/03/15 17:18:01;;;;;;;21.80;13.50;;;;;;;12.36;59.46;98798.45;233649;179;137843;-66
2024/03/15 17:23:04;;;;;;;27.80;14.90;;;;;;;12.30;59.61;98797.78;233345;168;137827;-63
2024/03/15 17:28:07;;;;;;;24.10;15.00;;;;;;;12.25;59.68;98803.67;233120;180;151089;-64
2024/03/15 17:33:11;;;;;;;28.60;16.10;;;;;;;12.18;59.96;98805.80;233663;180;137126;-64
2024/03/15 17:38:14;;;;;;;25.40;16.80;;;;;;;12.11;60.08;98808.77;233754;180;146200;-65
2024/03/15 17:43:18;;;;;;;27.60;17.50;;;;;;;12.08;60.12;98811.99;233756;180;151117;-65
2024/03/15 17:48:21;;;;;;;29.40;17.10;;;;;;;12.05;60.18;98814.21;233722;180;138935;-66
2024/03/15 17:53:25;;;;;;;29.40;17.70;;;;;;;12.02;60.31;98816.54;233644;179;138145;-66
2024/03/15 17:58:28;;;;;;;32.80;17.70;;;;;;;11.98;60.42;98819.66;233420;179;151486;-66
2024/03/15 18:03:31;;;;;;;33.80;18.10;;;;;;;11.93;60.67;98821.27;232802;176;137943;-65
2024/03/15 18:08:34;;;;;;;36.10;18.70;;;;;;;11.87;60.95;98819.03;233797;179;140208;-65
2024/03/15 18:13:37;;;;;;;30.00;17.80;;;;;;;11.82;61.00;98815.05;233696;180;151278;-65
2024/03/15 18:18:40;;;;;;;33.20;18.00;;;;;;;11.77;61.18;98812.25;233791;180;136727;-65
2024/03/15 18:23:43;;;;;;;29.10;17.10;;;;;;;11.74;61.14;98815.14;233675;179;137323;-65
2024/03/15 18:28:46;;;;;;;33.20;18.50;;;;;;;11.71;61.31;98811.95;233695;180;152173;-65
2024/03/15 18:33:49;;;;;;;31.60;18.00;;;;;;;11.71;61.34;98809.28;233526;180;137638;-64
2024/03/15 18:38:55;;;;;;;34.10;18.00;;;;;;;11.71;61.33;98810.90;233758;179;138315;-64
2024/03/15 18:43:59;;;;;;;;;;;;;;;11.67;61.41;98818.61;233699;169;151298;-64
2024/03/15 18:49:02;;;;;;;28.80;18.30;;;;;;;11.60;61.65;98819.08;233813;179;135353;-64
2024/03/15 18:54:05;;;;;;;37.80;18.40;;;;;;;11.54;61.82;98817.23;233798;179;137744;-64
2024/03/15 18:59:08;;;;;;;30.30;17.90;;;;;;;11.50;61.97;98815.20;233750;180;152339;-64
2024/03/15 19:04:12;;;;;;;30.40;19.10;;;;;;;11.44;62.23;98815.22;233708;179;138492;-65
2024/03/15 19:09:15;;;;;;;34.70;20.50;;;;;;;11.40;62.34;98810.44;233746;179;136948;-64
2024/03/15 19:14:18;;;;;;;35.60;18.80;;;;;;;11.35;62.41;98804.31;233673;179;151894;-63
2024/03/15 19:19:21;;;;;;;37.10;19.80;;;;;;;11.33;62.56;98802.91;233356;179;137666;-64
2024/03/15 19:24:24;;;;;;;38.70;21.70;;;;;;;11.27;62.78;98802.41;233685;179;137132;-64
2024/03/15 19:29:29;;;;;;;39.10;21.30;;;;;;;11.23;62.79;98798.27;233294;179;151810;-65
2024/03/15 19:34:32;;;;;;;37.00;21.10;;;;;;;11.18;63.02;98793.64;233558;179;137113;-66
2024/03/15 19:39:35;;;;;;;40.00;21.90;;;;;;;11.12;63.25;98788.66;233832;179;137333;-66
2024/03/15 19:44:38;;;;;;;35.00;21.40;;;;;;;11.09;63.42;98784.81;233721;179;152303;-68
2024/03/15 19:49:42;;;;;;;32.20;20.30;;;;;;;11.06;63.52;98787.88;233677;180;138135;-65
2024/03/15 19:54:46;;;;;;;34.80;22.10;;;;;;;11.04;63.58;98788.48;233778;180;137501;-65
2024/03/15 19:59:49;;;;;;;38.70;21.70;;;;;;;11.01;63.69;98779.13;233781;180;152408;-65
2024/03/15 20:04:52;;;;;;;39.10;21.60;;;;;;;10.95;63.82;98776.52;233606;179;137215;-64
2024/03/15 20:09:55;;;;;;;40.40;22.40;;;;;;;10.91;64.04;98776.66;233857;179;137799;-66
2024/03/15 20:15:00;;;;;;;46.50;22.20;;;;;;;10.86;64.09;98780.30;233656;180;152082;-66
2024/03/15 20:20:04;;;;;;;43.80;22.50;;;;;;;10.83;64.16;98780.72;233811;180;138334;-66
2024/03/15 20:25:08;;;;;;;46.90;21.50;;;;;;;10.80;64.31;98781.09;233736;180;137793;-66
2024/03/15 20:30:13;;;;;;;47.70;22.40;;;;;;;10.77;64.55;98783.96;233676;180;152133;-65
2024/03/15 20:35:19;;;;;;;41.80;22.10;;;;;;;10.73;64.47;98782.45;233669;180;137730;-66
2024/03/15 20:40:22;;;;;;;40.10;20.90;;;;;;;10.68;64.64;98782.80;233871;180;136997;-66
2024/03/15 20:45:26;;;;;;;41.60;20.70;;;;;;;10.69;64.60;98779.40;233770;180;151345;-66
2024/03/15 20:50:30;;;;;;;36.90;22.30;;;;;;;10.70;64.76;98777.73;233857;180;138227;-66
2024/03/15 20:55:32;;;;;;;56.50;22.10;;;;;;;10.71;64.87;98777.13;233403;180;137085;-65
2024/03/15 21:00:35;;;;;;;48.30;22.40;;;;;;;10.70;64.79;98784.79;233489;180;151425;-64
2024/03/15 21:05:39;;;;;;;48.20;22.30;;;;;;;10.68;64.71;98785.45;233679;179;137085;-64
2024/03/15 21:10:42;;;;;;;44.60;23.90;;;;;;;10.67;64.55;98785.70;233772;180;137947;-65
2024/03/15 21:15:55;;;;;;;50.60;22.80;;;;;;;10.61;64.67;98784.64;233741;180;151532;-65
2024/03/15 21:20:58;;;;;;;48.70;22.80;;;;;;;10.51;64.77;98785.48;233571;179;137703;-65
2024/03/15 21:26:01;;;;;;;43.70;22.50;;;;;;;10.44;65.12;98786.66;233623;180;138202;-64
2024/03/15 21:31:04;;;;;;;45.70;22.90;;;;;;;10.36;65.28;98786.67;233620;179;152210;-64
2024/03/15 21:36:09;;;;;;;50.10;23.50;;;;;;;10.29;65.36;98788.55;233470;179;137915;-64
2024/03/15 21:41:15;;;;;;;48.80;22.60;;;;;;;10.21;65.61;98785.29;233785;180;138364;-64
2024/03/15 21:46:31;;;;;;;54.20;24.60;;;;;;;10.15;65.72;98781.61;233680;180;152239;-65
2024/03/15 21:51:34;;;;;;;48.80;25.40;;;;;;;10.09;65.87;98786.22;233740;179;137169;-66
2024/03/15 21:56:37;;;;;;;52.50;26.70;;;;;;;10.01;65.95;98790.30;233825;179;137919;-65
2024/03/15 22:01:41;;;;;;;48.90;26.40;;;;;;;9.92;66.27;98795.50;233821;179;151763;-65
2024/03/15 22:06:48;;;;;;;51.60;25.70;;;;;;;9.88;66.45;98798.58;233858;179;137412;-64
2024/03/15 22:11:51;;;;;;;56.50;25.20;;;;;;;9.84;66.52;98796.71;233794;180;137494;-65
2024/03/15 22:16:55;;;;;;;48.30;25.10;;;;;;;9.81;66.74;98800.61;233724;180;151186;-64
2024/03/15 22:21:58;;;;;;;46.30;24.50;;;;;;;9.85;66.79;98805.11;233614;179;136996;-65
2024/03/15 22:27:01;;;;;;;51.30;25.40;;;;;;;9.85;66.72;98803.39;233782;180;136910;-65
2024/03/15 22:32:04;;;;;;;53.60;25.10;;;;;;;9.83;66.89;98803.48;233804;179;151974;-64
2024/03/15 22:37:08;;;;;;;53.50;26.80;;;;;;;9.79;66.92;98807.47;233822;179;136912;-65
2024/03/15 22:42:11;;;;;;;47.20;24.80;;;;;;;9.69;67.06;98807.55;233806;179;139281;-65
2024/03/15 22:47:14;;;;;;;48.40;25.40;;;;;;;9.63;67.53;98806.69;233853;179;151930;-64
2024/03/15 22:52:17;;;;;;;43.40;25.10;;;;;;;9.57;67.74;98809.18;233901;179;137154;-65
2024/03/15 22:57:20;;;;;;;43.90;25.40;;;;;;;9.52;68.01;98806.83;233817;180;136752;-65
2024/03/15 23:02:23;;;;;;;48.60;25.80;;;;;;;9.51;68.06;98806.17;233749;179;151960;-65
2024/03/15 23:07:26;;;;;;;47.60;25.70;;;;;;;9.49;68.21;98806.87;233737;179;137049;-65
2024/03/15 23:12:30;;;;;;;50.60;25.30;;;;;;;9.46;68.42;98804.56;233818;179;137460;-64